Time;durP1;ratioP1;P1;durP2;ratioP2;P2;SDS_P1;SDS_P2;PMS_P1;PMS_P2;Temp;Humidity;BMP_temperature;BMP_pressure;BME280_temperature;BME280_humidity;BME280_pressure;Samples;Min_cycle;Max_cycle;Signal;HPM_P1;HPM_P2
2021/12/16 00:02:19;;;;;;;9.27;4.97;;;7.80;99.90;;;;;;4825069;29;20069;-83
2021/12/16 00:07:34;;;;;;;11.85;5.32;;;7.90;99.90;;;;;;4828803;29;20052;-83
2021/12/16 00:34:12;;;;;;;12.25;5.05;;;8.50;99.90;;;;;;4832902;29;20053;-83
2021/12/16 00:36:40;;;;;;;16.02;5.85;;;8.50;99.90;;;;;;4839292;29;20041;-83
2021/12/16 00:39:17;;;;;;;13.13;6.00;;;8.50;99.90;;;;;;4816357;29;20486;-82
2021/12/16 00:41:46;;;;;;;15.32;5.50;;;8.50;99.90;;;;;;4811104;29;20050;-83
2021/12/16 00:55:05;;;;;;;15.55;6.50;;;8.60;99.90;;;;;;4823126;29;20157;-82
2021/12/16 00:57:31;;;;;;;10.82;5.60;;;8.60;99.90;;;;;;4817161;29;20050;-82
2021/12/16 01:00:00;;;;;;;12.73;5.35;;;8.60;99.90;;;;;;4823957;29;20046;-82
2021/12/16 01:05:50;;;;;;;9.48;4.80;;;8.60;99.90;;;;;;4830623;29;20092;-83
2021/12/16 01:41:16;;;;;;;14.52;5.32;;;8.70;99.90;;;;;;4798114;29;20061;-83
2021/12/16 01:51:37;;;;;;;13.43;5.15;;;8.80;99.90;;;;;;4830834;29;20356;-82
2021/12/16 01:56:50;;;;;;;14.73;5.82;;;8.80;99.90;;;;;;4821552;29;20676;-82
2021/12/16 01:59:20;;;;;;;10.93;4.90;;;8.90;99.90;;;;;;4826656;29;20057;-82
2021/12/16 02:01:46;;;;;;;16.50;5.28;;;8.90;99.90;;;;;;4824818;29;20051;-83
2021/12/16 02:04:26;;;;;;;15.38;5.88;;;8.80;99.90;;;;;;4827654;29;20049;-84
2021/12/16 02:09:31;;;;;;;10.80;4.80;;;8.80;99.90;;;;;;4822336;29;20058;-83
2021/12/16 02:31:20;;;;;;;13.52;5.90;;;8.80;99.90;;;;;;4821393;29;20448;-83
2021/12/16 02:36:43;;;;;;;8.98;4.32;;;8.80;99.90;;;;;;4819974;29;20524;-83
2021/12/16 02:39:14;;;;;;;14.77;5.13;;;8.80;99.90;;;;;;4819925;29;20125;-83
2021/12/16 02:41:43;;;;;;;10.13;4.25;;;8.80;99.90;;;;;;4821997;29;20128;-83
2021/12/16 02:44:19;;;;;;;10.85;4.55;;;8.80;99.90;;;;;;4822423;29;20104;-83
2021/12/16 02:49:44;;;;;;;17.02;5.30;;;8.80;99.90;;;;;;4808356;29;20507;-83
2021/12/16 02:52:10;;;;;;;10.18;4.85;;;8.80;99.90;;;;;;4824810;29;20101;-82
2021/12/16 02:54:36;;;;;;;10.70;4.50;;;8.70;99.90;;;;;;4810257;29;20137;-82
2021/12/16 02:57:02;;;;;;;11.65;4.80;;;8.70;99.90;;;;;;4809992;29;20560;-82
2021/12/16 02:59:30;;;;;;;;;;;8.60;99.90;;;;;;4810076;29;20054;-82
2021/12/16 03:01:57;;;;;;;;;;;8.50;99.90;;;;;;4824590;29;19931;-83
2021/12/16 03:04:26;;;;;;;9.05;4.63;;;8.50;99.90;;;;;;4823781;29;20054;-82
2021/12/16 03:06:56;;;;;;;11.98;4.15;;;8.50;99.90;;;;;;4808838;29;20519;-83
2021/12/16 03:09:43;;;;;;;12.82;4.63;;;8.40;99.90;;;;;;4824975;29;20050;-82
2021/12/16 03:14:53;;;;;;;15.02;4.82;;;8.30;99.90;;;;;;4820151;29;20144;-82
2021/12/16 03:20:03;;;;;;;10.35;4.65;;;8.20;99.90;;;;;;4810284;29;20112;-83
2021/12/16 03:36:15;;;;;;;9.52;4.45;;;7.90;99.90;;;;;;4811563;29;20132;-82
2021/12/16 03:38:38;;;;;;;7.70;4.10;;;7.80;99.90;;;;;;4812273;29;20510;-83
2021/12/16 03:41:06;;;;;;;12.00;3.83;;;7.70;99.90;;;;;;4825238;29;20065;-83
2021/12/16 03:43:33;;;;;;;10.68;4.88;;;7.70;99.90;;;;;;4810073;29;20073;-83
2021/12/16 03:48:43;;;;;;;10.63;4.68;;;7.70;99.90;;;;;;4822946;29;20502;-83
2021/12/16 03:51:40;;;;;;;9.63;4.22;;;7.70;99.90;;;;;;4821684;29;20508;-82
2021/12/16 03:54:14;;;;;;;9.82;4.30;;;7.60;99.90;;;;;;4818530;29;20065;-82
2021/12/16 03:56:40;;;;;;;9.25;3.75;;;7.60;99.90;;;;;;4821652;29;20050;-82
2021/12/16 03:59:09;;;;;;;8.27;3.47;;;7.50;99.90;;;;;;4819690;29;20046;-83
2021/12/16 04:01:35;;;;;;;10.65;3.72;;;7.40;99.90;;;;;;4807811;29;20480;-83
2021/12/16 04:04:01;;;;;;;9.90;4.55;;;7.40;99.90;;;;;;4824293;29;20042;-83
2021/12/16 04:06:28;;;;;;;;;;;7.30;99.90;;;;;;4824296;29;20069;-84
2021/12/16 04:08:54;;;;;;;11.23;4.78;;;7.30;99.90;;;;;;4820347;29;19924;-82
2021/12/16 04:11:31;;;;;;;11.02;4.80;;;7.20;99.90;;;;;;4823988;29;20492;-82
2021/12/16 04:13:59;;;;;;;8.52;4.50;;;7.20;99.90;;;;;;4809124;29;20162;-83
2021/12/16 04:16:31;;;;;;;6.68;3.70;;;7.20;99.90;;;;;;4809441;29;20496;-83
2021/12/16 04:18:59;;;;;;;6.93;4.10;;;7.10;99.90;;;;;;4824182;29;20474;-83
2021/12/16 04:21:27;;;;;;;6.22;3.33;;;7.10;99.90;;;;;;4824128;29;20373;-83
2021/12/16 04:23:55;;;;;;;8.38;3.78;;;7.00;99.90;;;;;;4788357;29;20273;-83
2021/12/16 04:26:22;;;;;;;6.55;3.10;;;7.00;99.90;;;;;;4823699;29;20114;-83
2021/12/16 04:28:48;;;;;;;6.60;3.22;;;7.00;99.90;;;;;;4818983;29;20093;-83
2021/12/16 04:31:14;;;;;;;8.70;3.47;;;7.00;99.90;;;;;;4808900;29;20457;-83
2021/12/16 04:33:40;;;;;;;7.50;2.90;;;6.90;99.90;;;;;;4823302;29;20046;-83
2021/12/16 04:36:08;;;;;;;5.63;2.92;;;6.90;99.90;;;;;;4823221;29;20128;-83
2021/12/16 04:38:37;;;;;;;6.97;3.78;;;6.80;99.90;;;;;;4820477;29;20153;-83
2021/12/16 04:41:05;;;;;;;6.25;3.20;;;6.90;99.90;;;;;;4823768;29;20135;-83
2021/12/16 04:43:39;;;;;;;5.60;2.92;;;6.80;99.90;;;;;;4809234;29;20093;-83
2021/12/16 04:46:14;;;;;;;4.95;2.20;;;6.80;99.90;;;;;;4808995;29;20070;-83
2021/12/16 04:48:42;;;;;;;3.88;1.92;;;6.80;99.90;;;;;;4808087;29;20108;-83
2021/12/16 04:51:09;;;;;;;2.70;1.75;;;6.70;99.90;;;;;;4808427;29;20098;-82
2021/12/16 04:53:36;;;;;;;4.18;2.63;;;6.60;99.90;;;;;;4823495;29;20094;-83
2021/12/16 04:56:04;;;;;;;5.50;2.60;;;6.60;99.90;;;;;;4838785;29;20041;-82
2021/12/16 04:58:30;;;;;;;5.10;2.42;;;6.50;99.90;;;;;;4808461;29;20412;-82
2021/12/16 05:00:56;;;;;;;3.42;2.20;;;6.50;99.90;;;;;;4819433;29;20052;-82
2021/12/16 05:03:22;;;;;;;3.40;2.50;;;6.40;99.90;;;;;;4799120;29;20069;-83
2021/12/16 05:05:48;;;;;;;4.00;2.25;;;6.40;99.90;;;;;;4821891;29;20054;-82
2021/12/16 05:08:14;;;;;;;3.75;2.30;;;6.30;99.90;;;;;;4820322;29;20133;-82
2021/12/16 05:10:40;;;;;;;3.58;1.90;;;6.40;99.90;;;;;;4823488;29;20053;-82
2021/12/16 05:13:06;;;;;;;6.50;2.50;;;6.30;99.90;;;;;;4802080;29;20483;-83
2021/12/16 05:15:35;;;;;;;3.05;2.30;;;6.40;99.90;;;;;;4808181;29;20052;-82
2021/12/16 05:18:06;;;;;;;4.45;2.38;;;6.40;99.90;;;;;;4823296;29;20052;-82
2021/12/16 05:20:41;;;;;;;5.53;2.40;;;6.40;99.90;;;;;;4823086;29;20057;-83
2021/12/16 05:28:36;;;;;;;6.07;3.20;;;6.40;99.90;;;;;;4816670;29;20056;-81
2021/12/16 05:31:03;;;;;;;7.43;4.05;;;6.40;99.90;;;;;;4822751;29;20033;-81
2021/12/16 05:33:30;;;;;;;9.25;4.55;;;6.40;99.90;;;;;;4818620;29;20046;-82
2021/12/16 05:35:57;;;;;;;;;;;6.40;99.90;;;;;;4807222;29;20049;-82
2021/12/16 05:38:25;;;;;;;5.93;4.03;;;6.50;99.90;;;;;;4805739;29;20338;-82
2021/12/16 05:40:52;;;;;;;5.20;3.20;;;6.40;99.90;;;;;;4823061;29;20138;-82
2021/12/16 05:43:22;;;;;;;4.65;3.08;;;6.50;99.90;;;;;;4806806;29;20139;-82
2021/12/16 05:45:47;;;;;;;10.65;4.20;;;6.50;99.90;;;;;;4821336;29;20085;-84
2021/12/16 05:48:16;;;;;;;6.57;3.70;;;6.50;99.90;;;;;;4802683;29;20140;-84
2021/12/16 05:50:46;;;;;;;3.97;2.83;;;6.60;99.90;;;;;;4822837;29;20122;-84
2021/12/16 05:53:13;;;;;;;4.53;2.30;;;6.50;99.90;;;;;;4823252;29;20355;-84
2021/12/16 05:55:39;;;;;;;6.00;3.03;;;6.60;99.90;;;;;;4809790;29;20042;-85
2021/12/16 05:58:07;;;;;;;5.43;2.70;;;6.50;99.90;;;;;;4825343;29;20539;-84
2021/12/16 06:00:42;;;;;;;4.28;2.40;;;6.50;99.90;;;;;;4809488;29;20057;-84
2021/12/16 06:03:08;;;;;;;10.23;3.83;;;6.40;99.90;;;;;;4809787;29;20046;-84
2021/12/16 06:05:34;;;;;;;4.85;3.08;;;6.40;99.90;;;;;;4824371;29;20061;-84
2021/12/16 06:08:00;;;;;;;6.00;3.28;;;6.40;99.90;;;;;;4828986;29;20077;-84
2021/12/16 06:11:07;;;;;;;;;;;6.40;99.90;;;;;;4825412;29;20053;-84
2021/12/16 06:13:18;;;;;;;4.93;3.10;;;6.40;99.90;;;;;;4840760;29;19999;-83
2021/12/16 06:29:09;;;;;;;5.45;2.90;;;6.20;99.90;;;;;;4807715;29;20130;-83
2021/12/16 06:31:35;;;;;;;5.70;3.47;;;6.20;99.90;;;;;;4843662;29;20136;-83
2021/12/16 06:34:01;;;;;;;5.60;3.33;;;6.20;99.90;;;;;;4844623;29;20042;-83
2021/12/16 06:36:27;;;;;;;4.13;2.75;;;6.20;99.90;;;;;;4829230;29;20049;-83
2021/12/16 06:38:53;;;;;;;4.10;2.45;;;6.20;99.90;;;;;;4829625;29;20079;-83
2021/12/16 06:41:19;;;;;;;3.00;2.05;;;6.10;99.90;;;;;;4829489;29;20488;-84
2021/12/16 06:43:47;;;;;;;3.28;2.47;;;6.10;99.90;;;;;;4814521;29;20048;-83
2021/12/16 06:46:17;;;;;;;5.75;3.10;;;6.00;99.90;;;;;;4844921;29;20084;-83
2021/12/16 06:48:45;;;;;;;3.17;2.20;;;6.00;99.90;;;;;;4829216;29;20041;-83
2021/12/16 06:51:22;;;;;;;4.40;2.65;;;5.90;99.90;;;;;;4844837;29;20045;-83
2021/12/16 06:56:38;;;;;;;4.13;2.90;;;5.90;99.90;;;;;;4844174;29;20053;-83
2021/12/16 06:59:08;;;;;;;4.00;2.75;;;5.80;99.90;;;;;;4844244;29;20667;-84
2021/12/16 07:01:40;;;;;;;3.63;2.40;;;5.80;99.90;;;;;;4844198;29;20120;-83
2021/12/16 07:04:12;;;;;;;4.72;2.55;;;5.80;99.90;;;;;;4814624;29;20455;-83
2021/12/16 07:06:39;;;;;;;4.40;2.80;;;5.80;99.90;;;;;;4844118;29;20058;-83
2021/12/16 07:09:17;;;;;;;3.63;2.30;;;5.80;99.90;;;;;;4844079;29;20045;-83
2021/12/16 07:11:47;;;;;;;3.72;2.00;;;5.90;99.90;;;;;;4843905;29;20068;-83
2021/12/16 07:14:16;;;;;;;4.50;2.92;;;5.90;99.90;;;;;;4828513;29;20056;-83
2021/12/16 07:16:46;;;;;;;5.65;3.50;;;5.90;99.90;;;;;;4843968;29;20053;-83
2021/12/16 07:19:12;;;;;;;5.55;3.22;;;5.90;99.90;;;;;;4837487;29;20050;-83
2021/12/16 07:21:39;;;;;;;3.80;2.53;;;5.90;99.90;;;;;;4792411;29;20053;-83
2021/12/16 07:24:11;;;;;;;2.95;1.90;;;5.90;99.90;;;;;;4807449;29;20434;-83
2021/12/16 07:26:36;;;;;;;3.13;2.10;;;5.80;99.90;;;;;;4807482;29;20103;-83
2021/12/16 07:29:04;;;;;;;2.97;2.10;;;5.70;99.90;;;;;;4792602;29;20058;-83
2021/12/16 07:31:30;;;;;;;2.60;2.10;;;5.70;99.90;;;;;;4806998;29;20050;-82
2021/12/16 07:33:57;;;;;;;3.17;2.30;;;5.80;99.90;;;;;;4807173;29;20407;-82
2021/12/16 07:36:24;;;;;;;3.75;1.70;;;5.80;99.90;;;;;;4806602;29;20093;-82
2021/12/16 07:38:50;;;;;;;;;;;5.70;99.90;;;;;;4807175;29;20054;-82
2021/12/16 07:41:20;;;;;;;3.35;1.92;;;5.70;99.90;;;;;;4807403;29;19944;-83
2021/12/16 07:43:57;;;;;;;2.42;1.60;;;5.70;99.90;;;;;;4807273;29;20050;-83
2021/12/16 07:46:24;;;;;;;2.75;2.00;;;5.60;99.90;;;;;;4806935;29;20111;-83
2021/12/16 07:48:51;;;;;;;3.63;1.70;;;5.60;99.90;;;;;;4807117;29;20438;-83
2021/12/16 07:51:17;;;;;;;2.20;1.70;;;5.50;99.90;;;;;;4823639;29;20046;-83
2021/12/16 07:53:43;;;;;;;3.72;1.63;;;5.50;99.90;;;;;;4806695;29;20054;-82
2021/12/16 07:56:10;;;;;;;3.67;1.67;;;5.50;99.90;;;;;;4806834;29;20441;-82
2021/12/16 07:58:37;;;;;;;2.65;1.67;;;5.50;99.90;;;;;;4792062;29;20344;-82
2021/12/16 08:01:04;;;;;;;2.40;2.00;;;5.50;99.90;;;;;;4806706;29;20329;-82
2021/12/16 08:03:35;;;;;;;2.47;2.10;;;5.50;99.90;;;;;;4807906;29;20492;-83
2021/12/16 08:06:08;;;;;;;3.47;2.40;;;5.60;99.90;;;;;;4806590;29;20365;-82
2021/12/16 08:08:34;;;;;;;6.22;3.45;;;5.70;99.90;;;;;;4806649;29;20122;-83
2021/12/16 08:11:01;;;;;;;5.32;2.90;;;5.80;99.90;;;;;;4804569;29;20133;-83
2021/12/16 08:13:27;;;;;;;4.07;2.78;;;5.90;99.90;;;;;;4791462;29;20085;-83
2021/12/16 08:15:53;;;;;;;3.80;2.80;;;5.90;99.90;;;;;;4791326;29;20477;-83
2021/12/16 08:18:19;;;;;;;3.72;2.47;;;6.00;99.90;;;;;;4806520;29;20138;-83
2021/12/16 08:20:45;;;;;;;6.75;3.13;;;6.00;99.90;;;;;;4791145;29;20046;-83
2021/12/16 08:23:12;;;;;;;5.90;3.42;;;6.20;99.90;;;;;;4791272;29;20069;-83
2021/12/16 08:25:38;;;;;;;3.83;2.72;;;6.20;99.90;;;;;;4791408;29;20082;-83
2021/12/16 08:28:05;;;;;;;3.28;2.42;;;6.30;99.90;;;;;;4806233;29;20488;-83
2021/12/16 08:30:36;;;;;;;6.95;2.80;;;6.30;99.90;;;;;;4791341;29;20046;-83
2021/12/16 08:33:06;;;;;;;7.78;3.72;;;6.40;99.90;;;;;;4806349;29;20050;-83
2021/12/16 08:35:32;;;;;;;4.57;2.53;;;6.40;99.90;;;;;;4805949;29;20509;-83
2021/12/16 08:37:58;;;;;;;3.25;2.60;;;6.50;99.90;;;;;;4791093;29;20050;-83
2021/12/16 08:40:25;;;;;;;6.50;3.10;;;6.50;99.90;;;;;;4805949;29;20187;-83
2021/12/16 08:42:52;;;;;;;5.63;3.03;;;6.60;99.90;;;;;;4790982;29;20061;-83
2021/12/16 08:45:23;;;;;;;5.28;2.95;;;6.60;99.90;;;;;;4806100;29;20464;-83
2021/12/16 08:47:49;;;;;;;4.70;2.50;;;6.60;99.90;;;;;;4805636;29;20195;-83
2021/12/16 08:50:18;;;;;;;5.93;3.13;;;6.70;99.90;;;;;;4790403;29;20132;-83
2021/12/16 08:52:44;;;;;;;4.28;2.88;;;6.70;99.90;;;;;;4805682;29;20088;-83
2021/12/16 08:55:12;;;;;;;4.28;2.65;;;6.70;99.90;;;;;;4822088;29;20479;-83
2021/12/16 08:57:39;;;;;;;4.78;2.78;;;6.80;99.90;;;;;;4805522;29;20416;-83
2021/12/16 09:00:12;;;;;;;3.83;2.80;;;6.80;99.90;;;;;;4814861;29;20050;-83
2021/12/16 09:02:37;;;;;;;5.43;3.72;;;6.90;99.90;;;;;;4790850;29;20046;-82
2021/12/16 09:05:05;;;;;;;6.93;3.63;;;6.90;99.90;;;;;;4791533;29;20059;-82
2021/12/16 09:07:31;;;;;;;5.65;3.53;;;6.90;99.90;;;;;;4776375;29;20353;-83
2021/12/16 09:09:58;;;;;;;8.10;4.15;;;7.00;99.90;;;;;;4790730;29;20479;-83
2021/12/16 09:13:12;;;;;;;6.60;4.03;;;7.00;99.90;;;;;;4791131;29;20524;-83
2021/12/16 09:15:12;;;;;;;10.82;6.63;;;7.00;99.90;;;;;;4795739;29;20448;-83
2021/12/16 09:17:38;;;;;;;12.05;5.85;;;7.00;99.90;;;;;;4805577;29;20114;-83
2021/12/16 09:20:06;;;;;;;7.82;5.60;;;7.00;99.90;;;;;;4790301;29;20050;-83
2021/12/16 09:22:32;;;;;;;9.60;5.80;;;7.00;99.90;;;;;;4805538;29;20058;-83
2021/12/16 09:24:58;;;;;;;10.95;7.53;;;7.10;99.90;;;;;;4805450;29;20566;-83
2021/12/16 09:27:26;;;;;;;14.07;7.18;;;7.10;99.90;;;;;;4805352;29;20046;-82
2021/12/16 09:29:53;;;;;;;9.68;5.78;;;7.10;99.90;;;;;;4805080;29;20086;-83
2021/12/16 09:32:22;;;;;;;9.95;5.88;;;7.10;99.90;;;;;;4805559;29;20380;-83
2021/12/16 09:34:48;;;;;;;17.77;7.30;;;7.20;99.90;;;;;;4775129;29;20050;-82
2021/12/16 09:37:13;;;;;;;11.07;7.32;;;7.20;99.90;;;;;;4790374;29;20057;-82
2021/12/16 09:39:40;;;;;;;9.30;6.55;;;7.30;99.90;;;;;;4790402;29;20428;-83
2021/12/16 09:42:09;;;;;;;10.82;6.85;;;7.30;99.90;;;;;;4804900;29;20336;-83
2021/12/16 09:44:36;;;;;;;13.90;8.13;;;7.40;99.90;;;;;;4804720;29;20051;-83
2021/12/16 09:47:05;;;;;;;11.25;6.38;;;7.40;99.90;;;;;;4790834;29;20116;-83
2021/12/16 09:49:31;;;;;;;8.80;5.68;;;7.50;99.90;;;;;;4809923;29;20061;-83
2021/12/16 09:51:59;;;;;;;9.07;6.43;;;7.50;99.90;;;;;;4793279;29;20057;-83
2021/12/16 09:54:29;;;;;;;6.78;4.60;;;7.50;99.90;;;;;;4823244;29;20079;-83
2021/12/16 09:56:56;;;;;;;5.50;4.15;;;7.60;99.90;;;;;;4808160;29;20108;-84
2021/12/16 09:59:24;;;;;;;9.70;6.80;;;7.60;99.90;;;;;;4808253;29;20118;-83
2021/12/16 10:01:53;;;;;;;10.45;7.90;;;7.60;99.90;;;;;;4841322;29;20392;-84
2021/12/16 10:04:21;;;;;;;10.18;6.53;;;7.60;99.90;;;;;;4811484;29;20057;-83
2021/12/16 10:06:53;;;;;;;8.38;6.28;;;7.60;99.90;;;;;;4826843;29;20062;-83
2021/12/16 10:09:20;;;;;;;7.60;6.13;;;7.60;99.90;;;;;;4827028;29;20053;-83
2021/12/16 10:11:49;;;;;;;5.47;4.22;;;7.60;99.90;;;;;;4811786;29;20104;-83
2021/12/16 10:14:30;;;;;;;5.38;4.05;;;7.70;99.90;;;;;;4811792;29;20565;-82
2021/12/16 10:19:42;;;;;;;7.40;5.85;;;7.70;99.90;;;;;;4826550;29;20045;-82
2021/12/16 10:22:15;;;;;;;;;;;7.70;99.90;;;;;;4811851;29;20568;-82
2021/12/16 10:24:41;;;;;;;9.25;6.93;;;7.80;99.90;;;;;;4826465;29;20238;-82
2021/12/16 10:27:26;;;;;;;9.50;7.85;;;7.80;99.90;;;;;;4826198;29;20056;-82
2021/12/16 10:30:04;;;;;;;13.60;7.68;;;7.80;99.90;;;;;;4842949;29;20042;-82
2021/12/16 10:32:46;;;;;;;12.05;6.60;;;7.80;99.90;;;;;;4811425;29;20136;-83
2021/12/16 10:35:35;;;;;;;7.57;6.05;;;7.80;99.90;;;;;;4826266;29;20121;-83
2021/12/16 10:38:05;;;;;;;7.35;6.05;;;7.80;99.90;;;;;;4810953;29;20128;-83
2021/12/16 10:40:43;;;;;;;5.93;4.95;;;7.80;99.90;;;;;;4819065;29;20452;-84
2021/12/16 10:43:29;;;;;;;8.25;7.03;;;7.80;99.90;;;;;;4811221;29;20050;-82
2021/12/16 10:46:13;;;;;;;8.73;5.75;;;7.80;99.90;;;;;;4825754;29;20181;-83
2021/12/16 10:48:42;;;;;;;7.22;6.30;;;7.80;99.90;;;;;;4810465;29;20050;-83
2021/12/16 10:51:12;;;;;;;7.93;6.45;;;7.80;99.90;;;;;;4810825;29;20056;-82
2021/12/16 10:54:05;;;;;;;7.20;5.78;;;7.80;99.90;;;;;;4825623;29;20525;-83
2021/12/16 10:56:38;;;;;;;8.15;6.43;;;7.90;99.90;;;;;;4841022;29;20140;-83
2021/12/16 10:59:19;;;;;;;10.48;7.10;;;7.90;99.90;;;;;;4825413;29;20064;-83
2021/12/16 11:02:06;;;;;;;16.10;8.35;;;7.90;99.90;;;;;;4825645;29;20049;-83
2021/12/16 11:04:44;;;;;;;;;;;7.90;99.90;;;;;;4825597;29;20046;-83
2021/12/16 11:07:27;;;;;;;9.35;7.68;;;7.90;99.90;;;;;;4825508;29;20407;-83
2021/12/16 11:10:15;;;;;;;12.82;8.57;;;7.90;99.90;;;;;;4825145;29;20137;-83
2021/12/16 11:12:43;;;;;;;9.13;7.38;;;7.90;99.90;;;;;;4825150;29;20507;-83
2021/12/16 11:15:11;;;;;;;6.00;5.40;;;7.90;99.90;;;;;;4825600;29;20061;-83
2021/12/16 11:17:51;;;;;;;5.47;4.82;;;7.90;99.90;;;;;;4825444;29;20504;-84
2021/12/16 11:20:23;;;;;;;7.78;6.35;;;7.90;99.90;;;;;;4809950;29;20397;-84
2021/12/16 11:22:54;;;;;;;7.30;6.13;;;8.00;99.90;;;;;;4842126;29;20457;-83
2021/12/16 11:25:25;;;;;;;8.27;6.78;;;8.00;99.90;;;;;;4825108;29;20163;-83
2021/12/16 11:28:05;;;;;;;5.55;4.55;;;8.00;99.90;;;;;;4825229;29;20050;-83
2021/12/16 11:30:38;;;;;;;8.15;6.38;;;8.10;99.90;;;;;;4822078;29;20140;-83
2021/12/16 11:33:32;;;;;;;8.38;6.60;;;8.10;99.90;;;;;;4822178;29;20058;-83
2021/12/16 11:36:03;;;;;;;8.52;6.85;;;8.00;99.90;;;;;;4791870;29;20050;-83
2021/12/16 11:39:01;;;;;;;12.18;8.68;;;8.00;99.90;;;;;;4807124;29;20365;-83
2021/12/16 11:41:40;;;;;;;12.13;8.55;;;8.10;99.90;;;;;;4791778;29;20051;-83
2021/12/16 11:44:07;;;;;;;8.77;7.13;;;8.10;99.90;;;;;;4807079;29;20060;-83
2021/12/16 11:46:36;;;;;;;9.00;7.18;;;8.20;99.90;;;;;;4806729;29;20143;-83
2021/12/16 11:49:21;;;;;;;8.57;7.00;;;8.20;99.90;;;;;;4806821;29;20590;-83
2021/12/16 11:51:50;;;;;;;13.23;7.60;;;8.20;99.90;;;;;;4807446;29;20200;-83
2021/12/16 11:54:24;;;;;;;9.15;6.43;;;8.10;99.90;;;;;;4806975;29;20369;-83
2021/12/16 11:57:01;;;;;;;10.68;7.63;;;8.20;99.90;;;;;;4806581;29;20062;-82
2021/12/16 11:59:35;;;;;;;12.07;8.38;;;8.20;99.90;;;;;;4806956;29;20062;-84
2021/12/16 12:02:02;;;;;;;12.32;9.00;;;8.20;99.90;;;;;;4807594;29;20056;-82
2021/12/16 12:04:33;;;;;;;10.27;7.75;;;8.20;99.90;;;;;;4806398;29;20157;-82
2021/12/16 12:07:07;;;;;;;9.95;7.53;;;8.20;99.90;;;;;;4788465;29;20108;-81
2021/12/16 12:09:38;;;;;;;10.15;7.10;;;8.20;99.90;;;;;;4799661;29;20549;-81
2021/12/16 12:12:04;;;;;;;12.48;6.75;;;8.30;99.90;;;;;;4806308;29;20054;-82
2021/12/16 12:14:33;;;;;;;7.30;5.80;;;8.40;99.90;;;;;;4791530;29;20038;-82
2021/12/16 12:17:11;;;;;;;10.10;7.00;;;8.40;99.90;;;;;;4806684;29;20061;-82
2021/12/16 12:19:44;;;;;;;9.95;6.40;;;8.30;99.90;;;;;;4813724;29;20050;-82
2021/12/16 12:22:11;;;;;;;12.38;8.00;;;8.40;99.90;;;;;;4809612;29;20134;-82
2021/12/16 12:24:40;;;;;;;11.23;7.60;;;8.40;99.90;;;;;;4808783;29;20045;-82
2021/12/16 12:27:19;;;;;;;12.07;7.68;;;8.40;99.90;;;;;;4809422;29;20480;-83
2021/12/16 12:29:53;;;;;;;17.38;8.88;;;8.50;99.90;;;;;;4824440;29;20538;-83
2021/12/16 12:32:33;;;;;;;20.75;10.43;;;8.40;99.90;;;;;;4824608;29;20050;-82
2021/12/16 12:35:10;;;;;;;11.52;7.07;;;8.40;99.90;;;;;;4824495;29;20131;-82
2021/12/16 12:37:39;;;;;;;12.80;7.90;;;8.40;99.90;;;;;;4824245;29;20049;-82
2021/12/16 12:40:08;;;;;;;12.27;8.77;;;8.40;99.90;;;;;;4824025;29;20053;-81
2021/12/16 12:42:35;;;;;;;13.85;8.75;;;8.40;99.90;;;;;;4809258;29;20057;-82
2021/12/16 12:45:05;;;;;;;13.60;8.07;;;8.40;99.90;;;;;;4808878;29;20426;-82
2021/12/16 12:47:35;;;;;;;14.13;7.78;;;8.40;99.90;;;;;;4840537;29;20554;-82
2021/12/16 12:50:21;;;;;;;16.92;8.88;;;8.50;99.90;;;;;;4824306;29;20046;-82
2021/12/16 12:52:51;;;;;;;12.18;7.68;;;8.40;99.90;;;;;;4824332;29;20119;-82
2021/12/16 12:55:28;;;;;;;15.43;9.05;;;8.50;99.90;;;;;;4808900;29;20060;-82
2021/12/16 12:58:04;;;;;;;15.23;8.13;;;8.50;99.90;;;;;;4824011;29;20065;-82
2021/12/16 13:00:33;;;;;;;11.50;7.40;;;8.60;99.90;;;;;;4808607;29;20061;-82
2021/12/16 13:03:07;;;;;;;13.20;7.85;;;8.50;99.90;;;;;;4824151;29;20115;-82
2021/12/16 13:05:33;;;;;;;13.27;7.03;;;8.60;99.90;;;;;;4808101;29;20053;-81
2021/12/16 13:08:09;;;;;;;11.95;7.32;;;8.60;99.90;;;;;;4808462;29;20107;-83
2021/12/16 13:10:46;;;;;;;17.10;10.48;;;8.60;99.90;;;;;;4823555;29;20053;-78
2021/12/16 13:25:07;;;;;;;20.58;11.48;;;8.70;99.90;;;;;;4823513;29;20061;-83
2021/12/16 13:27:44;;;;;;;16.67;10.35;;;8.70;99.90;;;;;;4823460;29;20100;-82
2021/12/16 13:32:45;;;;;;;17.48;10.20;;;8.70;99.90;;;;;;4823373;29;20053;-81
2021/12/16 13:37:48;;;;;;;18.30;10.07;;;8.70;99.90;;;;;;4823805;29;20054;-82
2021/12/16 13:40:14;;;;;;;18.00;10.70;;;8.70;99.90;;;;;;4822980;29;20061;-81
2021/12/16 13:43:02;;;;;;;13.60;8.20;;;8.70;99.90;;;;;;4823448;29;20062;-82
2021/12/16 13:45:37;;;;;;;12.32;7.32;;;8.70;99.90;;;;;;4817415;29;20065;-81
2021/12/16 14:05:19;;;;;;;13.63;6.55;;;8.80;99.90;;;;;;4804770;29;20465;-82
2021/12/16 14:07:56;;;;;;;11.90;6.15;;;8.70;99.90;;;;;;4790267;29;20053;-82
2021/12/16 14:10:32;;;;;;;15.00;6.88;;;8.70;99.90;;;;;;4789321;29;20043;-83
2021/12/16 14:25:32;;;;;;;15.13;7.28;;;8.70;99.90;;;;;;4804826;29;20055;-82
2021/12/16 14:37:15;;;;;;;15.40;7.95;;;8.70;99.90;;;;;;4804591;29;20050;-83
2021/12/16 14:42:15;;;;;;;14.48;7.82;;;8.80;99.90;;;;;;4804404;29;20042;-82
2021/12/16 14:50:29;;;;;;;15.38;7.53;;;8.70;99.90;;;;;;4821708;29;20053;-82
2021/12/16 14:52:56;;;;;;;15.65;7.88;;;8.70;99.90;;;;;;4826181;29;20052;-82
2021/12/16 14:55:22;;;;;;;14.77;7.68;;;8.70;99.90;;;;;;4826514;29;20054;-83
2021/12/16 14:57:53;;;;;;;15.95;7.43;;;8.70;99.90;;;;;;4812204;29;20085;-82
2021/12/16 15:00:39;;;;;;;14.27;7.82;;;8.60;99.90;;;;;;4825847;29;20066;-82
2021/12/16 15:03:17;;;;;;;16.40;7.95;;;8.60;99.90;;;;;;4826126;29;20042;-82
2021/12/16 15:05:59;;;;;;;12.93;7.25;;;8.60;99.90;;;;;;4810579;29;20666;-82
2021/12/16 15:09:18;;;;;;;15.00;8.57;;;8.50;99.90;;;;;;4825293;29;20048;-82
2021/12/16 15:11:46;;;;;;;14.35;8.60;;;8.50;99.90;;;;;;4815957;29;20403;-82
2021/12/16 15:14:36;;;;;;;15.60;8.13;;;8.50;99.90;;;;;;4810728;29;20050;-82
2021/12/16 15:17:19;;;;;;;16.45;8.75;;;8.50;99.90;;;;;;4824581;29;20069;-83
2021/12/16 15:42:50;;;;;;;13.52;8.43;;;8.40;99.90;;;;;;4823619;29;20129;-83
2021/12/16 15:45:33;;;;;;;13.07;8.60;;;8.30;99.90;;;;;;4817197;29;20099;-83
2021/12/16 15:48:14;;;;;;;14.60;9.13;;;8.40;99.90;;;;;;4821976;29;20058;-83
2021/12/16 15:50:44;;;;;;;10.70;6.80;;;8.40;99.90;;;;;;4815862;29;20081;-82
2021/12/16 15:53:20;;;;;;;10.38;6.80;;;8.40;99.90;;;;;;4823563;29;20042;-82
2021/12/16 15:56:05;;;;;;;12.30;7.47;;;8.40;99.90;;;;;;4822069;29;20053;-82
2021/12/16 15:58:34;;;;;;;12.80;7.05;;;8.40;99.90;;;;;;4826382;29;20369;-82
2021/12/16 16:01:07;;;;;;;10.27;6.60;;;8.40;99.90;;;;;;4825661;29;20042;-83
2021/12/16 16:03:33;;;;;;;10.77;5.63;;;8.30;99.90;;;;;;4818878;29;20082;-82
2021/12/16 16:06:02;;;;;;;9.32;6.05;;;8.40;99.90;;;;;;4820623;29;20479;-83
2021/12/16 16:08:31;;;;;;;10.05;5.80;;;8.40;99.90;;;;;;4829676;29;20054;-82
2021/12/16 16:11:05;;;;;;;9.93;5.70;;;8.30;99.90;;;;;;4821693;29;20052;-82
2021/12/16 16:13:41;;;;;;;7.18;4.40;;;8.30;99.90;;;;;;4823409;29;20046;-82
2021/12/16 16:16:08;;;;;;;7.75;4.25;;;8.30;99.90;;;;;;4822482;29;20042;-82
2021/12/16 16:18:40;;;;;;;7.63;4.90;;;8.40;99.90;;;;;;4823149;29;20088;-83
2021/12/16 16:21:18;;;;;;;6.60;4.72;;;8.40;99.90;;;;;;4806710;29;20576;-83
2021/12/16 16:23:51;;;;;;;6.45;4.13;;;8.40;99.90;;;;;;4826024;29;20067;-83
2021/12/16 16:26:17;;;;;;;7.07;4.68;;;8.30;99.90;;;;;;4808469;29;20154;-82
2021/12/16 16:28:46;;;;;;;8.52;5.03;;;8.40;99.90;;;;;;4807229;29;20038;-82
2021/12/16 16:31:23;;;;;;;7.20;4.45;;;8.40;99.90;;;;;;4835797;29;20054;-82
2021/12/16 16:33:50;;;;;;;7.28;4.30;;;8.40;99.90;;;;;;4833339;29;20057;-82
2021/12/16 16:36:19;;;;;;;9.35;6.00;;;8.40;99.90;;;;;;4829794;29;20056;-82
2021/12/16 16:38:52;;;;;;;9.50;6.47;;;8.40;99.90;;;;;;4822872;29;20054;-83
2021/12/16 16:41:21;;;;;;;14.02;8.52;;;8.40;99.90;;;;;;4820545;29;20046;-80
2021/12/16 16:44:01;;;;;;;13.10;8.23;;;8.40;99.90;;;;;;4828693;29;20116;-83
2021/12/16 16:46:39;;;;;;;11.15;6.70;;;8.40;99.90;;;;;;4813882;29;20424;-82
2021/12/16 16:49:08;;;;;;;9.77;6.20;;;8.40;99.90;;;;;;4807740;29;20042;-83
2021/12/16 16:51:39;;;;;;;10.80;7.13;;;8.40;99.90;;;;;;4821901;29;20412;-81
2021/12/16 16:54:28;;;;;;;10.73;6.57;;;8.40;99.90;;;;;;4802667;29;20109;-81
2021/12/16 16:56:57;;;;;;;10.75;7.10;;;8.40;99.90;;;;;;4834974;29;20052;-82
2021/12/16 16:59:40;;;;;;;13.52;9.40;;;8.40;99.90;;;;;;4821378;29;20414;-82
2021/12/16 17:02:23;;;;;;;13.82;9.25;;;8.40;99.90;;;;;;4814050;29;20044;-79
2021/12/16 17:04:56;;;;;;;14.90;9.57;;;8.40;99.90;;;;;;4805124;29;20046;-82
2021/12/16 17:07:23;;;;;;;14.02;8.95;;;8.40;99.90;;;;;;4799645;29;20411;-82
2021/12/16 17:09:49;;;;;;;11.07;7.25;;;8.40;99.90;;;;;;4812786;29;20073;-82
2021/12/16 17:12:16;;;;;;;10.18;6.57;;;8.40;99.90;;;;;;4834244;29;20098;-83
2021/12/16 17:14:56;;;;;;;7.50;4.88;;;8.40;99.90;;;;;;4777447;29;20445;-81
2021/12/16 17:17:24;;;;;;;7.90;5.40;;;8.40;99.90;;;;;;4800047;29;20050;-82
2021/12/16 17:19:58;;;;;;;8.60;5.43;;;8.40;99.90;;;;;;4818393;29;20495;-83
2021/12/16 17:22:39;;;;;;;11.13;7.60;;;8.40;99.90;;;;;;4814997;29;20082;-82